createdAt,value
2023-03-25T00:03:51.126Z,66.78
2023-03-25T00:08:54.823Z,66.78
2023-03-25T00:13:58.454Z,67.17
2023-03-25T00:19:03.481Z,66.74
2023-03-25T00:24:07.502Z,67.28
2023-03-25T00:29:11.147Z,67.44
2023-03-25T00:34:16.042Z,67.24
2023-03-25T00:39:19.225Z,68.74
2023-03-25T00:44:22.857Z,67.10
2023-03-25T00:49:28.873Z,67.45
2023-03-25T00:54:34.408Z,66.91
2023-03-25T00:59:38.038Z,68.08
2023-03-25T01:04:45.770Z,68.22
2023-03-25T01:09:49.484Z,67.85
2023-03-25T01:14:52.935Z,66.78
2023-03-25T01:19:58.170Z,66.76
2023-03-25T01:25:02.104Z,67.02
2023-03-25T01:30:07.276Z,66.78
2023-03-25T01:35:12.427Z,66.83
2023-03-25T01:40:20.825Z,68.06
2023-03-25T01:45:27.681Z,67.64
2023-03-25T01:50:33.502Z,68.25
2023-03-25T01:55:40.303Z,68.51
2023-03-25T02:00:45.890Z,68.54
2023-03-25T02:05:57.263Z,68.25
2023-03-25T02:11:00.880Z,67.84
2023-03-25T02:16:21.747Z,67.96
2023-03-25T02:22:26.184Z,69.14
2023-03-25T02:27:46.182Z,67.94
2023-03-25T02:33:22.730Z,68.65
2023-03-25T02:38:40.647Z,69.24
2023-03-25T02:43:51.892Z,68.68
2023-03-25T02:49:00.393Z,67.85
2023-03-25T02:54:09.012Z,67.84
2023-03-25T02:59:15.428Z,67.35
2023-03-25T03:04:18.954Z,67.54
2023-03-25T03:09:32.878Z,68.00
2023-03-25T03:14:57.579Z,67.64
2023-03-25T03:20:06.809Z,67.74
2023-03-25T03:25:23.131Z,67.45
2023-03-25T03:30:32.740Z,68.05
2023-03-25T03:35:39.402Z,67.61
2023-03-25T03:40:49.038Z,67.55
2023-03-25T03:45:58.170Z,67.03
2023-03-25T03:51:07.999Z,66.70
2023-03-25T03:56:19.406Z,67.36
2023-03-25T04:01:30.783Z,67.28
2023-03-25T04:06:41.893Z,67.24
2023-03-25T04:11:51.853Z,66.19
2023-03-25T04:16:56.819Z,66.52
2023-03-25T04:22:00.440Z,66.71
2023-03-25T04:27:05.525Z,66.10
2023-03-25T04:32:12.145Z,66.07
2023-03-25T04:37:16.249Z,66.03
2023-03-25T04:42:21.216Z,65.70
2023-03-25T04:47:26.126Z,66.66
2023-03-25T04:52:29.566Z,65.67
2023-03-25T04:57:34.477Z,65.47
2023-03-25T05:02:38.172Z,64.13
2023-03-25T05:07:41.670Z,64.13
2023-03-25T05:12:46.611Z,63.07
2023-03-25T05:17:49.760Z,63.14
2023-03-25T05:22:53.748Z,63.38
2023-03-25T05:27:58.601Z,63.17
2023-03-25T05:38:05.889Z,63.15
2023-03-25T05:43:10.754Z,62.50
2023-03-25T05:48:14.043Z,61.98
2023-03-25T05:53:17.456Z,61.79
2023-03-25T05:58:22.279Z,62.57
2023-03-25T06:03:26.277Z,62.35
2023-03-25T06:08:31.674Z,62.62
2023-03-25T06:13:38.334Z,63.39
2023-03-25T06:18:41.835Z,63.79
2023-03-25T06:23:45.301Z,63.82
2023-03-25T06:28:50.165Z,64.21
2023-03-25T06:33:53.367Z,66.92
2023-03-25T06:38:58.549Z,64.74
2023-03-25T06:44:03.442Z,65.88
2023-03-25T06:49:06.720Z,65.25
2023-03-25T06:54:10.191Z,66.46
2023-03-25T06:59:15.069Z,66.48
2023-03-25T07:04:19.638Z,66.36
2023-03-25T07:09:23.153Z,66.58
2023-03-25T07:14:28.309Z,67.63
2023-03-25T07:19:50.632Z,67.98
2023-03-25T07:24:54.044Z,67.76
2023-03-25T07:30:04.911Z,67.43
2023-03-25T07:35:09.623Z,67.28
2023-03-25T07:40:13.986Z,67.13
2023-03-25T07:45:19.072Z,67.13
2023-03-25T07:50:26.012Z,66.75
2023-03-25T07:55:29.608Z,67.12
2023-03-25T08:00:34.902Z,68.05
2023-03-25T08:05:38.382Z,67.12
2023-03-25T08:10:44.236Z,67.49
2023-03-25T08:21:28.031Z,66.99
2023-03-25T08:26:32.090Z,66.74
2023-03-25T08:31:38.884Z,66.39
2023-03-25T08:36:42.449Z,66.71
2023-03-25T08:41:46.283Z,66.97
2023-03-25T08:47:27.190Z,66.26
2023-03-25T08:52:49.084Z,66.62
2023-03-25T08:57:52.562Z,66.19
2023-03-25T09:02:59.165Z,65.46
2023-03-25T09:08:04.322Z,64.03
2023-03-25T09:13:07.945Z,64.02
2023-03-25T09:18:12.882Z,64.45
2023-03-25T09:23:16.106Z,64.80
2023-03-25T09:28:37.904Z,64.85
2023-03-25T09:33:42.912Z,64.78
2023-03-25T09:38:46.812Z,65.07
2023-03-25T09:44:02.388Z,65.57
2023-03-25T09:49:11.129Z,65.86
2023-03-25T09:59:47.505Z,65.36
2023-03-25T10:05:21.472Z,65.62
2023-03-25T10:10:30.535Z,65.75
2023-03-25T10:15:41.457Z,65.24
2023-03-25T10:21:01.802Z,65.22
2023-03-25T10:26:28.258Z,64.88
2023-03-25T10:31:37.234Z,64.78
2023-03-25T10:36:49.366Z,64.68
2023-03-25T10:41:57.980Z,65.32
2023-03-25T10:47:06.216Z,64.83
2023-03-25T10:52:11.741Z,65.17
2023-03-25T10:57:21.746Z,64.93
2023-03-25T11:02:28.232Z,64.60
2023-03-25T11:07:36.714Z,64.72
2023-03-25T11:12:43.815Z,65.17
2023-03-25T11:17:49.312Z,65.11
2023-03-25T11:23:16.393Z,65.26
2023-03-25T11:28:40.809Z,65.94
2023-03-25T11:33:46.382Z,65.98
2023-03-25T11:38:58.178Z,66.03
2023-03-25T11:44:02.974Z,65.78
2023-03-25T11:54:34.680Z,65.60
2023-03-25T11:59:41.381Z,65.00
2023-03-25T12:04:58.200Z,64.71
2023-03-25T12:10:07.728Z,64.14
2023-03-25T12:21:25.677Z,64.11
2023-03-25T12:26:54.132Z,64.04
2023-03-25T12:32:12.263Z,63.84
2023-03-25T12:37:28.360Z,63.35
2023-03-25T12:42:42.428Z,63.37
2023-03-25T12:47:50.464Z,62.81
2023-03-25T12:53:00.028Z,63.20
2023-03-25T12:58:32.608Z,63.34
2023-03-25T13:04:14.377Z,63.90
2023-03-25T13:09:25.643Z,63.35
2023-03-25T13:14:34.625Z,64.08
2023-03-25T13:19:42.801Z,64.18
2023-03-25T13:24:52.756Z,64.04
2023-03-25T13:30:06.200Z,63.86
2023-03-25T13:35:16.793Z,64.41
2023-03-25T13:40:27.879Z,64.95
2023-03-25T13:45:41.149Z,64.63
2023-03-25T13:50:44.774Z,64.95
2023-03-25T13:55:55.528Z,64.84
2023-03-25T14:01:18.115Z,64.97
2023-03-25T14:06:45.341Z,65.36
2023-03-25T14:11:54.253Z,65.29
2023-03-25T14:17:01.519Z,65.39
2023-03-25T14:22:27.595Z,65.35
2023-03-25T14:27:34.283Z,66.93
2023-03-25T14:32:40.426Z,66.38
2023-03-25T14:37:44.055Z,66.61
2023-03-25T14:43:00.577Z,66.81
2023-03-25T14:48:26.167Z,66.68
2023-03-25T14:53:48.433Z,66.28
2023-03-25T15:04:29.445Z,67.51
2023-03-25T15:09:33.477Z,67.42
2023-03-25T15:14:38.576Z,67.56
2023-03-25T15:20:29.342Z,67.58
2023-03-25T15:25:54.881Z,68.38
2023-03-25T15:31:11.672Z,67.65
2023-03-25T15:36:35.567Z,67.87
2023-03-25T15:42:16.253Z,68.03
2023-03-25T15:47:39.146Z,68.72
2023-03-25T15:53:04.751Z,70.46
2023-03-25T15:58:23.275Z,69.40
2023-03-25T16:03:30.809Z,69.42
2023-03-25T16:08:38.630Z,69.42
2023-03-25T16:13:43.779Z,69.58
2023-03-25T16:19:06.697Z,69.90
2023-03-25T16:24:34.248Z,69.41
2023-03-25T16:29:41.439Z,69.56
2023-03-25T16:34:44.921Z,69.67
2023-03-25T16:39:53.556Z,69.62
2023-03-25T16:44:58.606Z,69.55
2023-03-25T16:50:04.758Z,69.22
2023-03-25T16:55:30.121Z,69.49
2023-03-25T17:00:44.084Z,68.87
2023-03-25T17:06:02.551Z,69.45
2023-03-25T17:11:09.285Z,69.74
2023-03-25T17:16:32.962Z,69.69
2023-03-25T17:22:13.148Z,70.85
2023-03-25T17:27:36.317Z,69.74
2023-03-25T17:32:45.068Z,70.01
2023-03-25T17:37:50.750Z,69.83
2023-03-25T17:42:54.688Z,69.98
2023-03-25T17:47:59.716Z,69.78
2023-03-25T17:53:03.896Z,70.22
2023-03-25T18:03:48.996Z,70.60
2023-03-25T18:08:53.175Z,70.40
2023-03-25T18:13:56.621Z,69.94
2023-03-25T18:19:01.617Z,70.44
2023-03-25T18:24:05.353Z,69.99
2023-03-25T18:29:12.955Z,70.56
2023-03-25T18:34:18.297Z,70.01
2023-03-25T18:39:24.379Z,70.92
2023-03-25T18:44:30.858Z,70.86
2023-03-25T18:49:35.936Z,71.18
2023-03-25T19:00:14.391Z,70.96
2023-03-25T19:05:19.782Z,70.58
2023-03-25T19:10:25.375Z,70.62
2023-03-25T19:15:47.538Z,71.32
2023-03-25T19:20:52.632Z,71.01
2023-03-25T19:31:19.224Z,70.56
2023-03-25T19:36:25.880Z,70.70
2023-03-25T19:41:29.409Z,70.94
2023-03-25T19:46:51.301Z,70.32
2023-03-25T19:52:14.667Z,70.40
2023-03-25T20:02:39.168Z,70.67
2023-03-25T20:07:45.838Z,70.48
2023-03-25T20:12:50.088Z,70.68
2023-03-25T20:17:55.646Z,70.74
2023-03-25T20:23:17.666Z,71.13
2023-03-25T20:28:21.149Z,71.05
2023-03-25T20:33:27.505Z,71.16
2023-03-25T20:38:32.408Z,71.22
2023-03-25T20:43:36.000Z,70.58
2023-03-25T20:48:56.885Z,70.09
2023-03-25T20:54:01.774Z,70.80
2023-03-25T20:59:05.376Z,71.50
2023-03-25T21:04:09.978Z,70.71
2023-03-25T21:09:15.041Z,70.58
2023-03-25T21:14:19.403Z,70.12
2023-03-25T21:19:22.997Z,71.28
2023-03-25T21:29:48.799Z,71.25
2023-03-25T21:34:52.516Z,71.36
2023-03-25T21:39:58.379Z,71.14
2023-03-25T21:45:02.706Z,70.73
2023-03-25T21:50:27.014Z,70.90
2023-03-25T21:55:50.600Z,71.25
2023-03-25T22:00:58.087Z,70.51
2023-03-25T22:06:04.386Z,70.78
2023-03-25T22:11:11.200Z,70.31
2023-03-25T22:16:16.876Z,70.47
2023-03-25T22:21:22.202Z,70.56
2023-03-25T22:26:28.404Z,70.45
2023-03-25T22:31:39.564Z,70.11
2023-03-25T22:36:49.564Z,69.94
2023-03-25T22:41:57.912Z,70.22
2023-03-25T22:47:21.164Z,70.00
2023-03-25T22:58:04.808Z,70.15
2023-03-25T23:03:11.253Z,69.00
2023-03-25T23:08:14.776Z,69.52
2023-03-25T23:13:19.883Z,69.99
2023-03-25T23:18:42.001Z,69.80
2023-03-25T23:24:04.737Z,69.98
2023-03-25T23:29:12.465Z,69.54
2023-03-25T23:34:17.254Z,68.89
2023-03-25T23:39:23.000Z,68.71
2023-03-25T23:44:27.924Z,68.14
2023-03-25T23:49:34.605Z,67.38
